createdAt,value
2023-04-23T00:03:24.069Z,82.90
2023-04-23T00:08:27.191Z,83.20
2023-04-23T00:13:29.235Z,83.40
2023-04-23T00:18:31.045Z,83.80
2023-04-23T00:23:32.831Z,84.20
2023-04-23T00:28:34.642Z,84.20
2023-04-23T00:33:36.848Z,84.60
2023-04-23T00:38:38.701Z,84.60
2023-04-23T00:43:40.960Z,85.60
2023-04-23T00:48:43.065Z,85.90
2023-04-23T00:53:44.879Z,85.60
2023-04-23T00:58:46.741Z,86.50
2023-04-23T01:03:49.553Z,86.30
2023-04-23T01:08:52.147Z,86.50
2023-04-23T01:13:53.963Z,86.90
2023-04-23T01:18:56.805Z,87.30
2023-04-23T01:23:58.618Z,87.80
2023-04-23T01:29:01.104Z,88.60
2023-04-23T01:34:03.290Z,88.50
2023-04-23T01:39:05.731Z,88.60
2023-04-23T01:44:07.516Z,88.70
2023-04-23T01:49:09.377Z,88.90
2023-04-23T01:54:11.239Z,89.20
2023-04-23T01:59:13.062Z,89.60
2023-04-23T02:04:15.892Z,90.20
2023-04-23T02:09:17.972Z,90.20
2023-04-23T02:14:19.760Z,90.10
2023-04-23T02:19:21.563Z,90.40
2023-04-23T02:24:23.356Z,91.10
2023-04-23T02:29:25.243Z,90.90
2023-04-23T02:34:27.099Z,91.40
2023-04-23T02:39:28.931Z,91.70
2023-04-23T02:44:30.736Z,92.50
2023-04-23T02:54:36.867Z,91.70
2023-04-23T02:59:38.678Z,92.10
2023-04-23T03:04:40.722Z,92.60
2023-04-23T03:09:43.169Z,92.80
2023-04-23T03:14:45.025Z,92.70
2023-04-23T03:19:46.864Z,93.00
2023-04-23T03:24:48.650Z,93.00
2023-04-23T03:29:50.491Z,93.60
2023-04-23T03:34:52.306Z,93.80
2023-04-23T03:39:56.950Z,94.00
2023-04-23T03:44:59.130Z,94.60
2023-04-23T03:50:00.924Z,94.50
2023-04-23T03:55:02.982Z,94.70
2023-04-23T04:00:08.306Z,95.00
2023-04-23T04:05:13.503Z,94.90
2023-04-23T04:10:15.820Z,95.20
2023-04-23T04:15:19.846Z,95.00
2023-04-23T04:20:21.655Z,95.90
2023-04-23T04:25:24.170Z,97.20
2023-04-23T04:30:26.853Z,98.30
2023-04-23T04:35:28.723Z,99.20
2023-04-23T04:40:30.848Z,99.10
2023-04-23T04:45:32.685Z,99.50
2023-04-23T04:50:34.594Z,99.00
2023-04-23T04:55:36.446Z,98.00
2023-04-23T05:00:38.369Z,97.80
2023-04-23T05:05:40.268Z,97.00
2023-04-23T05:10:43.577Z,98.00
2023-04-23T05:15:48.516Z,96.40
2023-04-23T05:20:50.896Z,95.10
2023-04-23T05:25:55.931Z,94.00
2023-04-23T05:30:58.380Z,93.40
2023-04-23T05:36:02.368Z,93.10
2023-04-23T05:41:04.397Z,92.40
2023-04-23T05:46:07.548Z,92.20
2023-04-23T05:51:09.667Z,90.60
2023-04-23T05:56:11.525Z,87.50
2023-04-23T06:01:13.594Z,83.80
2023-04-23T06:06:15.471Z,83.90
2023-04-23T06:11:17.872Z,81.20
2023-04-23T06:16:19.904Z,79.20
2023-04-23T06:21:22.495Z,78.10
2023-04-23T06:26:24.330Z,77.00
2023-04-23T06:31:26.359Z,76.50
2023-04-23T06:36:28.308Z,78.00
2023-04-23T06:41:30.217Z,74.70
2023-04-23T06:46:32.133Z,74.40
2023-04-23T06:51:34.847Z,74.50
2023-04-23T06:56:36.756Z,74.00
2023-04-23T07:01:38.818Z,72.60
2023-04-23T07:06:40.713Z,71.60
2023-04-23T07:11:42.878Z,71.00
2023-04-23T07:16:44.793Z,71.30
2023-04-23T07:21:46.720Z,72.50
2023-04-23T07:26:48.512Z,72.00
2023-04-23T07:31:50.527Z,69.20
2023-04-23T07:36:52.527Z,69.30
2023-04-23T07:41:54.432Z,69.40
2023-04-23T07:46:56.515Z,70.00
2023-04-23T07:51:58.336Z,65.50
2023-04-23T07:57:00.164Z,65.50
2023-04-23T08:02:02.014Z,65.90
2023-04-23T08:07:03.833Z,67.80
2023-04-23T08:12:05.815Z,65.40
2023-04-23T08:17:07.776Z,65.90
2023-04-23T08:22:10.659Z,65.50
2023-04-23T08:27:12.668Z,63.20
2023-04-23T08:32:14.600Z,64.60
2023-04-23T08:37:27.296Z,65.50
2023-04-23T08:42:57.582Z,63.00
2023-04-23T08:48:02.340Z,63.90
2023-04-23T08:53:06.436Z,60.40
2023-04-23T08:58:08.362Z,61.00
2023-04-23T09:08:12.979Z,57.20
2023-04-23T09:13:15.132Z,59.80
2023-04-23T09:18:17.551Z,58.70
2023-04-23T09:23:21.844Z,62.50
2023-04-23T09:28:37.793Z,56.60
2023-04-23T09:33:39.918Z,57.20
2023-04-23T09:38:41.777Z,59.70
2023-04-23T09:43:43.647Z,60.40
2023-04-23T09:48:45.952Z,61.20
2023-04-23T09:58:50.002Z,57.60
2023-04-23T10:03:53.481Z,56.70
2023-04-23T10:08:58.874Z,56.40
2023-04-23T10:14:00.859Z,53.00
2023-04-23T10:19:03.637Z,55.10
2023-04-23T10:24:06.388Z,53.60
2023-04-23T10:29:15.088Z,56.30
2023-04-23T10:34:17.559Z,56.50
2023-04-23T10:39:29.976Z,58.80
2023-04-23T10:44:57.423Z,57.40
2023-04-23T10:49:58.520Z,59.20
2023-04-23T10:55:00.846Z,58.10
2023-04-23T11:00:04.521Z,59.10
2023-04-23T11:05:09.062Z,60.90
2023-04-23T11:10:14.908Z,58.90
2023-04-23T11:15:19.413Z,57.20
2023-04-23T11:20:22.346Z,63.20
2023-04-23T11:25:26.884Z,61.90
2023-04-23T11:30:29.721Z,58.40
2023-04-23T11:35:39.569Z,59.20
2023-04-23T11:40:42.729Z,57.70
2023-04-23T11:45:44.785Z,63.00
2023-04-23T11:50:46.771Z,56.90
2023-04-23T11:55:49.303Z,55.20
2023-04-23T12:00:58.098Z,57.00
2023-04-23T12:06:00.053Z,57.10
2023-04-23T12:11:03.125Z,55.40
2023-04-23T12:16:05.664Z,56.70
2023-04-23T12:21:18.764Z,56.70
2023-04-23T12:26:21.348Z,56.50
2023-04-23T12:31:25.436Z,57.00
2023-04-23T12:36:29.836Z,57.00
2023-04-23T12:41:33.450Z,57.80
2023-04-23T12:46:35.663Z,56.10
2023-04-23T12:51:40.230Z,56.50
2023-04-23T12:56:49.137Z,55.80
2023-04-23T13:01:54.529Z,55.90
2023-04-23T13:06:57.089Z,56.50
2023-04-23T13:12:00.352Z,56.00
2023-04-23T13:17:07.388Z,56.80
2023-04-23T13:22:11.721Z,56.60
2023-04-23T13:27:21.210Z,56.30
2023-04-23T13:32:35.006Z,56.20
2023-04-23T13:37:42.858Z,55.60
2023-04-23T13:42:44.889Z,55.00
2023-04-23T13:47:47.107Z,55.60
2023-04-23T13:52:48.978Z,51.90
2023-04-23T13:57:51.003Z,54.70
2023-04-23T14:02:52.863Z,54.50
2023-04-23T14:07:54.957Z,55.10
2023-04-23T14:12:57.156Z,54.50
2023-04-23T14:17:59.824Z,54.20
2023-04-23T14:23:04.093Z,55.20
2023-04-23T14:28:24.359Z,55.30
2023-04-23T14:33:26.373Z,55.10
2023-04-23T14:38:28.190Z,54.70
2023-04-23T14:43:31.248Z,55.20
2023-04-23T14:48:35.838Z,55.10
2023-04-23T14:53:37.753Z,56.40
2023-04-23T14:58:39.991Z,54.10
2023-04-23T15:03:44.621Z,55.90
2023-04-23T15:08:48.765Z,54.40
2023-04-23T15:14:03.687Z,56.40
2023-04-23T15:19:06.652Z,56.70
2023-04-23T15:24:08.690Z,55.50
2023-04-23T15:29:10.743Z,56.00
2023-04-23T15:34:12.583Z,57.10
2023-04-23T15:39:14.627Z,55.80
2023-04-23T15:44:18.149Z,55.40
2023-04-23T15:49:20.028Z,56.30
2023-04-23T15:54:21.939Z,56.50
2023-04-23T15:59:23.770Z,57.80
2023-04-23T16:04:25.863Z,56.00
2023-04-23T16:09:28.003Z,57.00
2023-04-23T16:14:30.244Z,57.30
2023-04-23T16:19:32.036Z,57.20
2023-04-23T16:24:35.057Z,57.20
2023-04-23T16:29:37.753Z,58.60
2023-04-23T16:34:39.668Z,58.30
2023-04-23T16:39:45.405Z,59.40
2023-04-23T16:44:47.527Z,58.90
2023-04-23T16:56:19.223Z,59.30
2023-04-23T17:01:22.255Z,61.00
2023-04-23T17:06:31.833Z,62.30
2023-04-23T17:11:59.587Z,63.10
2023-04-23T17:17:14.820Z,63.50
2023-04-23T17:22:23.439Z,63.90
2023-04-23T17:27:25.346Z,65.60
2023-04-23T17:32:27.190Z,64.20
2023-04-23T17:37:29.021Z,65.30
2023-04-23T17:42:30.794Z,66.10
2023-04-23T17:47:32.744Z,66.20
2023-04-23T17:52:34.562Z,67.00
2023-04-23T17:57:36.455Z,67.60
2023-04-23T18:02:41.872Z,68.20
2023-04-23T18:07:44.772Z,69.00
2023-04-23T18:12:46.645Z,69.40
2023-04-23T18:17:48.527Z,70.90
2023-04-23T18:22:50.498Z,71.10
2023-04-23T18:27:52.728Z,71.30
2023-04-23T18:33:36.195Z,70.90
2023-04-23T18:38:43.213Z,72.80
2023-04-23T18:43:45.066Z,73.20
2023-04-23T18:48:59.343Z,75.00
2023-04-23T18:54:01.721Z,75.70
2023-04-23T18:59:03.709Z,75.70
2023-04-23T19:04:06.460Z,75.50
2023-04-23T19:09:08.676Z,76.50
2023-04-23T19:14:10.587Z,77.40
2023-04-23T19:19:12.974Z,77.20
2023-04-23T19:24:15.100Z,77.90
2023-04-23T19:29:16.971Z,79.00
2023-04-23T19:34:19.212Z,79.00
2023-04-23T19:39:23.447Z,79.90
2023-04-23T19:44:25.333Z,80.10
2023-04-23T19:49:27.470Z,81.00
2023-04-23T19:54:29.401Z,82.80
2023-04-23T19:59:31.207Z,84.70
2023-04-23T20:04:33.154Z,85.70
2023-04-23T20:09:35.288Z,84.00
2023-04-23T20:14:37.223Z,84.90
2023-04-23T20:19:39.870Z,85.10
2023-04-23T20:24:46.269Z,85.00
2023-04-23T20:29:48.396Z,85.00
2023-04-23T20:34:50.323Z,85.10
2023-04-23T20:39:53.194Z,86.30
2023-04-23T20:44:55.087Z,85.30
2023-04-23T20:49:56.916Z,86.10
2023-04-23T20:54:58.732Z,86.30
2023-04-23T21:00:00.810Z,86.30
2023-04-23T21:05:02.705Z,86.00
2023-04-23T21:10:05.689Z,87.10
2023-04-23T21:15:08.846Z,87.10
2023-04-23T21:20:10.902Z,87.10
2023-04-23T21:25:14.018Z,86.20
2023-04-23T21:30:32.278Z,87.50
2023-04-23T21:35:34.147Z,87.10
2023-04-23T21:40:39.634Z,87.20
2023-04-23T21:45:41.509Z,87.50
2023-04-23T21:50:43.347Z,87.90
2023-04-23T21:55:45.287Z,89.80
2023-04-23T22:00:48.033Z,90.00
2023-04-23T22:05:49.980Z,90.10
2023-04-23T22:10:51.849Z,90.00
2023-04-23T22:15:53.723Z,90.40
2023-04-23T22:20:55.521Z,90.30
2023-04-23T22:25:57.512Z,91.10
2023-04-23T22:30:59.320Z,90.90
2023-04-23T22:36:01.293Z,91.20
2023-04-23T22:41:03.226Z,90.80
2023-04-23T22:46:05.215Z,90.90
2023-04-23T22:51:07.097Z,91.10
2023-04-23T22:56:08.928Z,91.40
2023-04-23T23:01:11.053Z,91.90
2023-04-23T23:06:13.100Z,92.00
2023-04-23T23:11:15.023Z,92.30
2023-04-23T23:16:19.717Z,92.60
2023-04-23T23:21:21.610Z,92.90
2023-04-23T23:26:23.422Z,93.30
2023-04-23T23:31:25.967Z,93.40
2023-04-23T23:36:28.021Z,93.60
2023-04-23T23:41:29.814Z,94.00
2023-04-23T23:46:31.673Z,94.10
2023-04-23T23:51:34.009Z,94.40
2023-04-23T23:56:35.863Z,94.50
